Address 0x8633c9ccbbd3c0b8a8912bdf9db78b9dccb28d1a 2

 
Txn Hash Method
Block
From
To
Value [Txn Fee]
0x2c58ab5acec9ed5c6d23916a262ace51f107abbf706e2e61f074f16f75b215f9Airdrop242210842022-01-27 9:46:311 hr 59 mins ago0x8633c9ccbbd3c0b8a8912bdf9db78b9dccb28d1aOUT 0x6e41eedca6cfe4c6a3d3c6999041648c9a14d59e0 MATIC0.004774249525 32.003925042
0x3b45ab61428e0a8946b47d66d0fe12bfcedd675bdc2d08955fe3238e517e006dAirdrop242210802022-01-27 9:46:231 hr 59 mins ago0x8633c9ccbbd3c0b8a8912bdf9db78b9dccb28d1aOUT 0x6e41eedca6cfe4c6a3d3c6999041648c9a14d59e0 MATIC0.004618788289 30.961798998
0x60fd42b4e87977eaa17be875a9c9ece94a223a3e50dace7a2762979df061da0fAirdrop242210752022-01-27 9:46:131 hr 59 mins ago0x8633c9ccbbd3c0b8a8912bdf9db78b9dccb28d1aOUT 0x6e41eedca6cfe4c6a3d3c6999041648c9a14d59e0 MATIC0.005322777393 35.023571945
0xe666b884db076662b4fb01444add22ef18f67f77d3816dd96a4739965012e18fAirdrop242210712022-01-27 9:46:052 hrs ago0x8633c9ccbbd3c0b8a8912bdf9db78b9dccb28d1aOUT 0x6e41eedca6cfe4c6a3d3c6999041648c9a14d59e0 MATIC0.005056604704 33.896677804
0xa70a60fe03646409a2f66a33f9d393962ec525cfe804ec8aa4f7c781cfb8e70bAirdrop242210662022-01-27 9:45:552 hrs ago0x8633c9ccbbd3c0b8a8912bdf9db78b9dccb28d1aOUT 0x6e41eedca6cfe4c6a3d3c6999041648c9a14d59e0 MATIC0.005262341405 34.625906587
0xc1df5820764d27230e5be3fe5b960402435a1c31189712fc00b7d92355ef1e19Airdrop242210622022-01-27 9:45:472 hrs ago0x8633c9ccbbd3c0b8a8912bdf9db78b9dccb28d1aOUT 0x6e41eedca6cfe4c6a3d3c6999041648c9a14d59e0 MATIC0.00516254065 34.60681372
0x420d9862c291d6eaf7e9b717f34af4d7f44ac89f6c97d99d41176aae242f05e5Airdrop242210572022-01-27 9:45:372 hrs ago0x8633c9ccbbd3c0b8a8912bdf9db78b9dccb28d1aOUT 0x6e41eedca6cfe4c6a3d3c6999041648c9a14d59e0 MATIC0.005215391157 34.319686489
0x318a0ccc82095d3b58feb42ddff04da57986244442d8ca82eba3aa61711fff0bAirdrop242210552022-01-27 9:45:292 hrs ago0x8633c9ccbbd3c0b8a8912bdf9db78b9dccb28d1aOUT 0x6e41eedca6cfe4c6a3d3c6999041648c9a14d59e0 MATIC0.005109168619 34.251792438
0x2876dd7af9b9fba3a7f673d3903c74e1727c65c776520a44e26eaaa650475e37Airdrop242210502022-01-27 9:45:192 hrs ago0x8633c9ccbbd3c0b8a8912bdf9db78b9dccb28d1aOUT 0x6e41eedca6cfe4c6a3d3c6999041648c9a14d59e0 MATIC0.005017201326 33.012898835
0xecb4b8aa83566db7ad0e144a75d1bd96d3f8f21a8b1cd3d9408d3d7aa08c65b7Airdrop242202662022-01-27 9:16:152 hrs 29 mins ago0x8633c9ccbbd3c0b8a8912bdf9db78b9dccb28d1aOUT 0x6e41eedca6cfe4c6a3d3c6999041648c9a14d59e0 MATIC0.004922834306 32.999955129
0x1ffe1f519db39adca6ac0238a7152acc1cb5365e9496dd743bd46015c09b6b64Airdrop242202622022-01-27 9:16:072 hrs 30 mins ago0x8633c9ccbbd3c0b8a8912bdf9db78b9dccb28d1aOUT 0x6e41eedca6cfe4c6a3d3c6999041648c9a14d59e0 MATIC0.005370381388 36.000062934
0x94cfe93a3bd45809290b2ae2f67e96a77f912354cb98c02513cbfb34b6e2c99eAirdrop242202562022-01-27 9:15:552 hrs 30 mins ago0x8633c9ccbbd3c0b8a8912bdf9db78b9dccb28d1aOUT 0x6e41eedca6cfe4c6a3d3c6999041648c9a14d59e0 MATIC0.005015241092 33.000000608
0x1a565eb897477aa9d387ffd6769167d7d8c81d641bcd7b9625349dfd38b10ba4Airdrop242202522022-01-27 9:15:472 hrs 30 mins ago0x8633c9ccbbd3c0b8a8912bdf9db78b9dccb28d1aOUT 0x6e41eedca6cfe4c6a3d3c6999041648c9a14d59e0 MATIC0.005319292129 35.000639106
0x238ed853d004e3a7f0b12189ef5c1ad01603e38654c6aaf15d70fec31d76fed5Airdrop242202472022-01-27 9:15:372 hrs 30 mins ago0x8633c9ccbbd3c0b8a8912bdf9db78b9dccb28d1aOUT 0x6e41eedca6cfe4c6a3d3c6999041648c9a14d59e0 MATIC0.005471167489 35.99997032
0x29a609ead7ae03ba2da7370aa3ec630918d056985b49e6230569857601876f70Airdrop242202422022-01-27 9:15:272 hrs 30 mins ago0x8633c9ccbbd3c0b8a8912bdf9db78b9dccb28d1aOUT 0x6e41eedca6cfe4c6a3d3c6999041648c9a14d59e0 MATIC0.005025495344 33.067473005
0xbbbb161c963103f81dbb9e46138056699b8fef61e4f6376c99375b699d0b44e6Airdrop242202372022-01-27 9:15:172 hrs 30 mins ago0x8633c9ccbbd3c0b8a8912bdf9db78b9dccb28d1aOUT 0x6e41eedca6cfe4c6a3d3c6999041648c9a14d59e0 MATIC0.005370370211 35.999988008
0xb026d1b28e745ee7a2246f6f04e7cd72440250d2d64469b9822f7f08f7baaf42Airdrop242202332022-01-27 9:15:092 hrs 31 mins ago0x8633c9ccbbd3c0b8a8912bdf9db78b9dccb28d1aOUT 0x6e41eedca6cfe4c6a3d3c6999041648c9a14d59e0 MATIC0.005471168715 35.999978387
0xdc575e05ff7262d38f0384428fcc21da9ccef1fb6d031bb16edd5f9e8df55934Airdrop242202292022-01-27 9:15:012 hrs 31 mins ago0x8633c9ccbbd3c0b8a8912bdf9db78b9dccb28d1aOUT 0x6e41eedca6cfe4c6a3d3c6999041648c9a14d59e0 MATIC0.004679695907 31.370089944
0xb8895fa5684e5359ddb740a497c4895dfa2915a783e8d03d157b90aee8a10f72Airdrop242202242022-01-27 9:14:512 hrs 31 mins ago0x8633c9ccbbd3c0b8a8912bdf9db78b9dccb28d1aOUT 0x6e41eedca6cfe4c6a3d3c6999041648c9a14d59e0 MATIC0.005370383056 36.000074119
0x26228e513e0755d25bb9970505be708591e7c79a9747c395383f8b7284b2be2aAirdrop242202192022-01-27 9:14:372 hrs 31 mins ago0x8633c9ccbbd3c0b8a8912bdf9db78b9dccb28d1aOUT 0x6e41eedca6cfe4c6a3d3c6999041648c9a14d59e0 MATIC0.005072020204 34.000014777
0x85777281059782537d9c34020b6658f12925d66caf111f24e54b80b745bb9798Airdrop242202142022-01-27 9:14:272 hrs 31 mins ago0x8633c9ccbbd3c0b8a8912bdf9db78b9dccb28d1aOUT 0x6e41eedca6cfe4c6a3d3c6999041648c9a14d59e0 MATIC0.005106302291 33.599178108
0x306484a4455441f659ca6156e6100bfae6a9fca193cf253cd418b247e3d7a734Airdrop242202102022-01-27 9:14:192 hrs 31 mins ago0x8633c9ccbbd3c0b8a8912bdf9db78b9dccb28d1aOUT 0x6e41eedca6cfe4c6a3d3c6999041648c9a14d59e0 MATIC0.005370381467 36.000063465
0xa14259c724f9d7ebca1037eed04070da7aa024cd7bf9cee35b299cb44df85a5bAirdrop242202052022-01-27 9:14:092 hrs 32 mins ago0x8633c9ccbbd3c0b8a8912bdf9db78b9dccb28d1aOUT 0x6e41eedca6cfe4c6a3d3c6999041648c9a14d59e0 MATIC0.004922845611 33.000030916
0x294f38f1fc11ae84cccb52e37e0da7051add15143fcb83f50c4d8c89f86b762aAirdrop242202012022-01-27 9:14:012 hrs 32 mins ago0x8633c9ccbbd3c0b8a8912bdf9db78b9dccb28d1aOUT 0x6e41eedca6cfe4c6a3d3c6999041648c9a14d59e0 MATIC0.004639479504 31.100501451
0x2fbb8ffa74259a7d60ab0207aab4e2683fde637c0c029a74af4896a3ebefb47eAirdrop242201962022-01-27 9:13:512 hrs 32 mins ago0x8633c9ccbbd3c0b8a8912bdf9db78b9dccb28d1aOUT 0x6e41eedca6cfe4c6a3d3c6999041648c9a14d59e0 MATIC0.00510628782 33.599082888
[ Download CSV Export 
Latest 2 internal transactions
Parent Txn Hash Block From To Value
0xe48a3a0e9a2ab3fc62be2e73180b49e78420dc75614c4b5668a9800e67865e58218254742021-11-26 14:52:4361 days 20 hrs ago Polygon: MATIC Token0x8633c9ccbbd3c0b8a8912bdf9db78b9dccb28d1a5 MATIC
0x0aa4415ccae5bbd50dd4dfd397ea79c446138b0a56d150cd82b48989110d87d9217476522021-11-24 14:11:1563 days 21 hrs ago Polygon: MATIC Token0x8633c9ccbbd3c0b8a8912bdf9db78b9dccb28d1a10.084999647765675506 MATIC
[ Download CSV Export 
Loading

Contract Name:
0 MATIC

Compiler Version
0

Optimization Enabled:
0 MATIC

Other Settings:
-NA-
Block Transaction Gas Used Reward
Age Block Fee Address BC Fee Address Voting Power Jailed Incoming
Block Uncle Number Difficulty Gas Used Reward
Loading
Loading
Make sure to use the "Vote Down" button for any spammy posts, and the "Vote Up" for interesting conversations.